Latest Weather Observations for Mackay Airport

IDQ60801

Issued at 7:02 am EST Thursday 28 July 2016 (issued every 30 minutes, with the page automatically refreshed every 10 minutes)

About weather observations | Map of weather stations | Latest weather observations for QLD | Other Formats
Station Details ID: 033045 Name: MACKAY AERO Lat: -21.17 Lon: 149.18 Height: 4.7 m
Data from the previous 72 hours. | See also: Recent months at Mackay Airport
Date/Time
EST
Temp
°C
App
Temp
°C
Dew
Point
°C
Rel
Hum
%
Delta-T
°C
Wind Press
QNH
hPa
Press
MSL
hPa
Rain since
9am
mm
Dir  Spd
km/h
Gust
km/h
Spd
kts
Gust
kts
28/07:00am 10.8 8.9 9.2 90 0.8 SW 9 11 5 6 1021.9 1021.9 0.0
28/06:30am 10.5 7.8 9.1 91 0.7 SW 13 13 7 7 1021.5 1021.5 0.0
28/06:00am 10.0 7.0 9.2 95 0.4 SSW 15 15 8 8 1021.3 1021.3 0.0
28/05:30am 10.7 8.9 9.3 91 0.7 SSW 9 11 5 6 1021.1 1021.1 0.0
28/05:00am 11.8 10.8 10.4 91 0.7 SSW 6 6 3 3 1020.8 1020.8 0.0
28/04:30am 11.7 9.6 9.6 87 1.1 SSW 11 13 6 7 1020.6 1020.6 0.0
28/04:00am 13.1 12.0 10.8 86 1.2 SSW 7 7 4 4 1020.5 1020.5 0.0
28/03:30am 12.3 10.8 10.4 88 1.0 SSW 9 11 5 6 1020.6 1020.6 0.0
28/03:00am 14.8 13.1 11.2 79 1.9 SSE 11 13 6 7 1020.6 1020.6 0.0
28/02:30am 14.8 13.2 11.6 81 1.7 S 11 13 6 7 1020.7 1020.7 0.0
28/02:00am 15.2 13.7 11.8 80 1.8 S 11 15 6 8 1020.7 1020.7 0.0
28/01:30am 14.5 12.9 11.7 83 1.5 SSW 11 15 6 8 1020.9 1020.9 0.0
28/01:00am 13.9 13.7 11.9 88 1.1 SSW 4 7 2 4 1020.9 1020.9 0.0
28/12:30am 14.7 13.7 12.2 85 1.4 SSW 9 9 5 5 1020.7 1020.7 0.0
28/12:00am 14.8 13.7 12.1 84 1.5 SSW 9 13 5 7 1020.9 1020.9 0.0
 
Date/Time
EST
Temp
°C
App
Temp
°C
Dew
Point
°C
Rel
Hum
%
Delta-T
°C
Wind Press
QNH
hPa
Press
MSL
hPa
Rain since
9am
mm
Dir  Spd
km/h
Gust
km/h
Spd
kts
Gust
kts
27/11:30pm 15.4 16.0 13.2 87 1.2 SW 2 6 1 3 1020.8 1020.8 0.0
27/11:00pm 16.1 16.6 13.9 87 1.2 SW 4 6 2 3 1020.8 1020.8 0.0
27/10:30pm 15.3 14.2 13.0 86 1.3 SW 11 13 6 7 1020.5 1020.5 0.0
27/10:00pm 16.3 15.3 13.4 83 1.6 S 11 11 6 6 1020.3 1020.3 0.0
27/09:30pm 17.6 17.2 14.1 80 2.0 S 9 9 5 5 1020.3 1020.3 0.0
27/09:00pm 17.6 16.7 13.7 78 2.2 SSW 11 15 6 8 1020.0 1020.0 0.0
27/08:30pm 19.2 18.5 15.5 79 2.2 SSE 13 17 7 9 1019.8 1019.8 0.0
27/08:00pm 18.8 18.9 15.5 81 1.9 S 9 11 5 6 1019.5 1019.5 0.0
27/07:30pm 18.8 18.9 15.5 81 1.9 SSE 9 11 5 6 1019.1 1019.1 0.0
27/07:00pm 20.0 20.0 16.2 79 2.3 SE 11 13 6 7 1018.7 1018.7 0.0
27/06:30pm 20.6 20.2 16.2 76 2.6 SE 13 17 7 9 1018.3 1018.3 0.0
27/06:00pm 20.9 20.1 16.1 74 2.9 SE 15 20 8 11 1018.2 1018.2 0.0
27/05:30pm 21.4 20.5 15.9 71 3.3 ESE 15 19 8 10 1017.7 1017.7 0.0
27/05:00pm 22.0 20.5 15.4 66 3.9 SE 17 22 9 12 1017.4 1017.4 0.0
27/04:30pm 22.4 20.4 15.5 65 4.1 ESE 20 24 11 13 1017.2 1017.2 0.0
27/04:00pm 22.8 20.4 15.4 63 4.4 ESE 22 28 12 15 1016.7 1016.7 0.0
27/03:30pm 23.3 21.0 15.6 62 4.6 ESE 22 28 12 15 1016.5 1016.5 0.0
27/03:00pm 23.4 20.4 14.9 59 5.0 ESE 24 33 13 18 1016.4 1016.4 0.0
27/02:30pm 24.0 21.8 16.8 64 4.4 ESE 24 32 13 17 1016.5 1016.5 0.0
27/02:00pm 24.0 21.2 16.3 62 4.7 ESE 26 32 14 17 1016.6 1016.6 0.0
27/01:30pm 24.1 21.4 15.6 59 5.1 ESE 24 28 13 15 1016.7 1016.7 0.0
27/01:00pm 23.9 22.4 16.7 64 4.4 ESE 20 24 11 13 1017.2 1017.2 0.0
27/12:30pm 23.5 21.6 16.8 66 4.1 ESE 22 28 12 15 1017.7 1017.7 0.0
27/12:00pm 23.6 22.4 17.6 69 3.7 ESE 20 24 11 13 1017.9 1017.9 0.0
27/11:30am 23.3 22.0 16.8 67 4.0 ESE 19 24 10 13 1018.1 1018.1 0.0
27/11:00am 23.0 23.1 17.5 71 3.4 ESE 13 20 7 11 1018.6 1018.6 0.0
27/10:30am 22.8 23.1 17.0 70 3.6 SE 11 17 6 9 1018.7 1018.7 0.0
27/10:00am 22.5 23.0 18.3 77 2.6 SSE 13 19 7 10 1019.1 1019.1 0.0
27/09:30am 21.7 22.3 18.7 83 1.9 SSW 13 17 7 9 1019.4 1019.4 0.0
27/09:00am 20.6 21.8 18.2 86 1.5 SSW 9 13 5 7 1019.3 1019.3 0.0
27/08:30am 19.0 19.1 17.5 91 0.9 SW 13 15 7 8 1019.2 1019.2 0.0
27/08:00am 18.0 18.3 17.0 94 0.6 SW 11 17 6 9 1019.2 1019.2 0.0
27/07:47am 17.6 18.2 16.8 95 0.5 WSW 9 13 5 7 1019.1 1019.1 0.0
27/07:30am 17.2 17.6 16.4 95 0.5 WSW 9 11 5 6 1018.9 1018.9 0.0
27/07:00am 16.1 16.8 16.1 100 0.0 WSW 7 9 4 5 1018.9 1018.9 0.0
27/06:30am 14.9 15.3 14.7 99 0.1 WSW 6 7 3 4 1018.5 1018.5 0.0
27/06:21am 14.3 14.2 14.0 98 0.2 WSW 7 9 4 5 1018.4 1018.4 0.0
27/06:00am 14.5 14.5 14.2 98 0.2 WSW 7 11 4 6 1018.1 1018.1 0.0
27/05:30am 14.7 14.4 14.4 98 0.2 SW 9 11 5 6 1018.1 1018.1 0.0
27/05:00am 15.0 14.1 14.8 99 0.1 SW 13 13 7 7 1018.0 1018.0 0.0
27/04:30am 14.8 14.2 14.6 99 0.1 SW 11 13 6 7 1017.9 1017.9 0.0
27/04:00am 14.8 14.9 14.5 98 0.2 SW 7 9 4 5 1017.7 1017.7 0.0
27/03:30am 14.8 14.5 14.5 98 0.2 SW 9 11 5 6 1017.9 1017.9 0.0
27/03:00am 15.0 14.7 14.5 97 0.3 SW 9 11 5 6 1018.0 1018.0 0.0
27/02:30am 15.7 16.4 15.5 99 0.1 SW 6 7 3 4 1017.9 1017.9 0.0
27/02:00am 15.1 14.9 14.8 98 0.2 SW 9 11 5 6 1018.0 1018.0 0.0
27/01:30am 15.5 15.4 15.0 97 0.3 SW 9 11 5 6 1018.3 1018.3 0.0
27/01:15am 15.7 15.7 15.2 97 0.3 SW 9 11 5 6 1018.4 1018.4 0.0
27/01:00am 16.0 16.1 15.4 96 0.3 SW 9 9 5 5 1018.4 1018.4 0.0
27/12:30am 16.7 17.0 16.1 96 0.4 SW 9 11 5 6 1018.5 1018.5 0.0
27/12:00am 17.2 17.5 16.9 98 0.2 SW 11 13 6 7 1018.3 1018.3 0.0
 
Date/Time
EST
Temp
°C
App
Temp
°C
Dew
Point
°C
Rel
Hum
%
Delta-T
°C
Wind Press
QNH
hPa
Press
MSL
hPa
Rain since
9am
mm
Dir  Spd
km/h
Gust
km/h
Spd
kts
Gust
kts
26/11:43pm 16.7 16.8 16.4 98 0.2 SSW 11 13 6 7 1018.1 1018.1 0.0
26/11:30pm 16.2 16.0 15.6 96 0.3 SSW 11 13 6 7 1018.0 1018.0 0.0
26/11:00pm 16.5 16.4 16.0 97 0.3 SSW 11 13 6 7 1018.0 1018.0 0.0
26/10:30pm 17.1 17.5 16.3 95 0.5 SSW 9 11 5 6 1018.1 1018.1 0.0
26/10:00pm 17.6 17.5 17.0 96 0.4 SSW 13 15 7 8 1017.9 1017.9 0.0
26/09:30pm 17.2 17.3 16.4 95 0.5 SSW 11 13 6 7 1017.7 1017.7 0.0
26/09:00pm 17.8 18.4 16.7 93 0.7 SSW 9 11 5 6 1017.7 1017.7 0.0
26/08:30pm 19.2 19.8 17.7 91 0.9 S 11 13 6 7 1017.5 1017.5 0.0
26/08:00pm 20.3 19.6 18.2 88 1.3 SE 19 24 10 13 1017.4 1017.4 0.0
26/07:30pm 20.4 19.7 18.3 88 1.3 SE 19 24 10 13 1017.2 1017.2 0.0
26/07:00pm 20.5 20.3 18.6 89 1.2 SE 17 22 9 12 1016.8 1016.8 0.0
26/06:30pm 20.2 20.5 18.7 91 0.9 SE 15 19 8 10 1016.6 1016.6 0.0
26/06:00pm 20.5 20.0 18.6 89 1.2 SE 19 22 10 12 1016.4 1016.4 0.0
26/05:30pm 20.7 19.8 18.3 86 1.5 SE 20 24 11 13 1016.0 1016.0 0.0
26/05:00pm 21.3 20.1 18.3 83 1.9 ESE 22 28 12 15 1015.7 1015.7 0.0
26/04:30pm 21.9 21.0 18.3 80 2.2 ESE 20 26 11 14 1015.5 1015.5 0.0
26/04:00pm 22.0 20.2 17.8 77 2.6 ESE 24 28 13 15 1015.6 1015.6 0.0
26/03:30pm 22.1 20.5 17.5 75 2.8 ESE 22 28 12 15 1015.6 1015.6 0.0
26/03:00pm 22.1 20.0 17.2 74 3.0 ESE 24 28 13 15 1015.6 1015.6 0.0
26/02:30pm 22.7 21.2 17.8 74 3.0 ESE 22 28 12 15 1015.9 1015.9 0.0
26/02:00pm 23.9 22.9 18.8 73 3.2 ESE 22 28 12 15 1016.0 1016.0 0.0
26/01:30pm 23.2 21.3 16.7 67 4.0 ESE 22 28 12 15 1016.4 1016.4 0.0
26/01:00pm 23.2 21.9 17.2 69 3.7 ESE 20 26 11 14 1016.4 1016.4 0.0
26/12:30pm 23.7 22.6 17.2 67 4.0 ESE 19 26 10 14 1016.8 1016.8 0.0
26/12:00pm 23.9 22.9 17.9 69 3.7 ESE 20 24 11 13 1017.2 1017.2 0.0
26/11:30am 23.5 22.5 16.5 65 4.3 ESE 17 24 9 13 1017.6 1017.6 0.0
26/11:00am 23.3 22.1 15.1 60 4.9 SE 15 22 8 12 1018.0 1018.0 0.0
26/10:30am 23.4 22.3 14.4 57 5.3 SE 13 20 7 11 1018.2 1018.2 0.0
26/10:00am 22.2 21.3 13.8 59 4.9 S 11 15 6 8 1018.5 1018.5 0.0
26/09:30am 20.9 20.3 14.5 67 3.7 SSW 11 17 6 9 1018.5 1018.5 0.0
26/09:00am 19.6 18.9 14.4 72 3.0 SW 11 13 6 7 1018.6 1018.6 0.0
26/08:30am 18.2 18.5 15.1 82 1.8 WSW 7 9 4 5 1018.5 1018.5 0.0
26/08:00am 16.3 16.4 14.5 89 1.0 WSW 7 9 4 5 1018.3 1018.3 0.0
26/07:30am 14.7 13.8 13.7 94 0.6 WSW 11 13 6 7 1018.1 1018.1 0.0
26/07:00am 13.5 13.1 12.9 96 0.3 WSW 7 11 4 6 1018.0 1018.0 0.0
26/06:30am 12.8 11.7 12.0 95 0.4 WSW 9 11 5 6 1017.7 1017.7 0.0
26/06:00am 13.1 12.6 12.2 94 0.5 WSW 6 7 3 4 1017.4 1017.4 0.0
26/05:30am 13.4 12.5 12.5 94 0.5 WSW 9 11 5 6 1017.2 1017.2 0.0
26/05:00am 13.6 12.4 12.7 94 0.5 WSW 11 13 6 7 1016.9 1016.9 0.0
26/04:43am 13.5 12.2 12.4 93 0.6 WSW 11 13 6 7 1016.9 1016.9 0.0
26/04:30am 14.1 13.7 13.1 94 0.6 SW 7 9 4 5 1016.8 1016.8 0.0
26/04:16am 13.8 13.4 13.0 95 0.4 SW 7 9 4 5 1016.9 1016.9 0.0
26/04:00am 13.4 12.5 12.5 94 0.5 SW 9 9 5 5 1016.9 1016.9 0.0
26/03:30am 13.6 13.1 12.8 95 0.4 SW 7 7 4 4 1016.9 1016.9 0.0
26/03:00am 13.7 13.3 12.9 95 0.4 SW 7 9 4 5 1016.9 1016.9 0.0
26/02:30am 13.9 13.1 13.0 94 0.5 SW 9 11 5 6 1017.0 1017.0 0.0
26/02:00am 13.9 12.8 13.0 94 0.5 SSW 11 11 6 6 1017.4 1017.4 0.0
26/01:30am 14.2 13.4 12.9 92 0.7 SSE 9 11 5 6 1017.7 1017.7 0.0
26/01:00am 14.3 14.0 12.7 90 0.9 SSE 6 7 3 4 1017.7 1017.7 0.0
26/12:34am 14.3 13.1 12.9 91 0.8 SSE 11 13 6 7 1017.9 1017.9 0.0
26/12:30am 14.4 13.6 13.0 91 0.8 SSE 9 13 5 7 1017.9 1017.9 0.0
26/12:21am 14.6 14.2 13.1 91 0.8 SSE 7 9 4 5 1018.0 1018.0 0.0
26/12:00am 14.7 14.2 12.7 88 1.1 SSE 7 9 4 5 1018.0 1018.0 0.0
 
Date/Time
EST
Temp
°C
App
Temp
°C
Dew
Point
°C
Rel
Hum
%
Delta-T
°C
Wind Press
QNH
hPa
Press
MSL
hPa
Rain since
9am
mm
Dir  Spd
km/h
Gust
km/h
Spd
kts
Gust
kts
25/11:30pm 15.1 14.7 13.0 87 1.2 SSE 7 11 4 6 1017.7 1017.7 0.0
25/11:00pm 15.3 14.9 13.0 86 1.3 SSE 7 9 4 5 1017.7 1017.7 0.0
25/10:30pm 16.6 16.6 14.1 85 1.4 SSE 7 9 4 5 1017.6 1017.6 0.0
25/10:00pm 16.6 16.8 14.1 85 1.4 SSE 6 7 3 4 1017.6 1017.6 0.0
25/09:30pm 17.5 17.7 14.8 84 1.6 SSE 7 9 4 5 1017.6 1017.6 0.0
25/09:00pm 17.2 17.2 14.3 83 1.7 SSE 7 9 4 5 1017.5 1017.5 0.0
25/08:30pm 18.4 18.6 14.3 77 2.4 SSE 6 7 3 4 1017.3 1017.3 0.0
25/08:00pm 19.2 19.7 14.9 76 2.5 SSE 6 7 3 4 1017.1 1017.1 0.0
25/07:30pm 19.5 19.3 14.7 74 2.8 SSE 9 13 5 7 1016.8 1016.8 0.0
25/07:00pm 20.0 19.4 14.6 71 3.1 SSE 11 13 6 7 1016.6 1016.6 0.0
25/06:30pm 20.4 18.6 14.5 69 3.4 SE 17 22 9 12 1016.1 1016.1 0.0
25/06:00pm 20.8 18.5 14.2 66 3.8 SE 19 22 10 12 1016.0 1016.0 0.0
25/05:30pm 21.5 19.4 14.6 65 4.0 SE 19 24 10 13 1015.8 1015.8 0.0
25/05:00pm 22.0 19.9 14.6 63 4.3 ESE 19 24 10 13 1015.5 1015.5 0.0
25/04:30pm 22.5 19.5 13.8 58 5.1 ESE 22 28 12 15 1015.2 1015.2 0.0
25/04:00pm 22.9 20.0 15.0 61 4.7 SE 24 28 13 15 1014.9 1014.9 0.0
25/03:30pm 23.0 19.6 13.8 56 5.4 ESE 24 32 13 17 1014.7 1014.7 0.0
25/03:00pm 24.1 20.7 14.8 56 5.5 SE 26 32 14 17 1014.8 1014.8 0.0
25/02:30pm 23.4 19.6 13.6 54 5.7 ESE 26 32 14 17 1015.0 1015.0 0.0
25/02:00pm 23.7 20.7 14.7 57 5.3 ESE 24 32 13 17 1015.3 1015.3 0.0
25/01:30pm 23.7 19.7 14.1 55 5.6 ESE 28 35 15 19 1015.7 1015.7 0.0
25/01:00pm 23.9 19.8 12.8 49 6.4 ESE 26 33 14 18 1016.1 1016.1 0.0
25/12:30pm 24.1 21.0 15.6 59 5.1 ESE 26 35 14 19 1016.6 1016.6 0.0
25/12:00pm 24.4 22.2 16.9 63 4.6 ESE 24 32 13 17 1017.1 1017.1 0.0
25/11:30am 24.8 22.2 16.0 58 5.4 ESE 24 30 13 16 1017.2 1017.2 0.0
25/11:00am 25.6 24.1 16.2 56 5.8 SE 19 28 10 15 1017.5 1017.5 0.0
25/10:30am 25.8 24.1 13.6 47 7.2 S 15 20 8 11 1017.7 1017.7 0.0
25/10:00am 24.6 23.6 14.7 54 5.9 SSW 13 19 7 10 1017.8 1017.8 0.0
25/09:30am 22.8 23.9 17.9 74 3.1 SW 9 11 5 6 1017.9 1017.9 0.0
25/09:00am 21.6 23.8 19.7 89 1.2 SW 7 11 4 6 1017.9 1017.9 0.0
25/08:30am 20.8 23.1 19.8 94 0.6 SW 7 9 4 5 1017.8 1017.8 0.0
25/08:00am 19.6 21.6 19.1 97 0.3 SSW 7 7 4 4 1017.5 1017.5 0.0
25/07:57am 19.4 21.3 18.9 97 0.3 SSW 7 9 4 5 1017.5 1017.5 0.0
25/07:30am 19.0 20.8 18.7 98 0.2 SSW 7 9 4 5 1017.4 1017.4 0.0

Other Formats:

Comma delimited format used in spreadsheet applications
http://www.bom.gov.au/fwo/IDQ60801/IDQ60801.95367.axf

JavaScript Object Notation format (JSON) in row-major order
http://www.bom.gov.au/fwo/IDQ60801/IDQ60801.95367.json